createdAt,value
2022-12-11T00:00:21.795Z,993.16
2022-12-11T00:01:24.416Z,993.18
2022-12-11T00:02:27.342Z,993.14
2022-12-11T00:03:30.275Z,993.11
2022-12-11T00:04:32.926Z,993.17
2022-12-11T00:05:35.578Z,993.22
2022-12-11T00:06:38.195Z,993.19
2022-12-11T00:07:40.905Z,993.21
2022-12-11T00:08:43.550Z,993.21
2022-12-11T00:09:46.240Z,993.2
2022-12-11T00:10:48.934Z,993.22
2022-12-11T00:11:51.595Z,993.13
2022-12-11T00:12:54.255Z,993.14
2022-12-11T00:13:56.918Z,993.11
2022-12-11T00:14:59.605Z,993.14
2022-12-11T00:16:02.470Z,993.16
2022-12-11T00:17:05.420Z,993.13
2022-12-11T00:18:08.134Z,993.19
2022-12-11T00:19:10.862Z,993.16
2022-12-11T00:20:13.583Z,993.16
2022-12-11T00:21:16.282Z,993.23
2022-12-11T00:22:18.958Z,993.23
2022-12-11T00:23:21.761Z,993.19
2022-12-11T00:24:24.409Z,993.19
2022-12-11T00:25:27.041Z,993.19
2022-12-11T00:26:29.680Z,993.23
2022-12-11T00:27:32.287Z,993.22
2022-12-11T00:28:34.972Z,993.23
2022-12-11T00:29:37.590Z,993.29
2022-12-11T00:30:40.233Z,993.27
2022-12-11T00:31:43.232Z,993.18
2022-12-11T00:32:45.897Z,993.26
2022-12-11T00:33:48.578Z,993.25
2022-12-11T00:34:51.233Z,993.18
2022-12-11T00:35:53.880Z,993.22
2022-12-11T00:36:57.169Z,993.16
2022-12-11T00:37:59.772Z,993.23
2022-12-11T00:39:02.448Z,993.19
2022-12-11T00:40:05.052Z,993.18
2022-12-11T00:41:07.687Z,993.2
2022-12-11T00:42:10.362Z,993.12
2022-12-11T00:43:13.003Z,993.18
2022-12-11T00:44:15.646Z,993.19
2022-12-11T00:45:18.352Z,993.17
2022-12-11T00:46:21.457Z,993.23
2022-12-11T00:47:24.073Z,993.21
2022-12-11T00:48:26.678Z,993.22
2022-12-11T00:49:29.324Z,993.24
2022-12-11T00:50:31.987Z,993.24
2022-12-11T00:51:34.642Z,993.22
2022-12-11T00:52:37.334Z,993.25
2022-12-11T00:53:39.989Z,993.3
2022-12-11T00:54:42.718Z,993.31
2022-12-11T00:55:45.385Z,993.26
2022-12-11T00:56:48.017Z,993.31
2022-12-11T00:57:50.687Z,993.29
2022-12-11T00:58:53.355Z,993.33
2022-12-11T00:59:55.978Z,993.37
2022-12-11T01:00:59.185Z,993.41
2022-12-11T01:02:01.920Z,993.44
2022-12-11T01:03:05.040Z,993.36
2022-12-11T01:04:07.683Z,993.37
2022-12-11T01:05:11.600Z,993.41
2022-12-11T01:06:14.308Z,993.4
2022-12-11T01:07:17.006Z,993.39
2022-12-11T01:08:19.860Z,993.41
2022-12-11T01:09:22.493Z,993.41
2022-12-11T01:10:25.796Z,993.4
2022-12-11T01:11:28.489Z,993.45
2022-12-11T01:12:31.094Z,993.46
2022-12-11T01:13:33.736Z,993.49
2022-12-11T01:14:36.456Z,993.57
2022-12-11T01:15:42.360Z,993.51
2022-12-11T01:16:44.939Z,993.59
2022-12-11T01:17:47.616Z,993.59
2022-12-11T01:18:50.269Z,993.61
2022-12-11T01:19:52.946Z,993.57
2022-12-11T01:20:55.622Z,993.63
2022-12-11T01:21:58.374Z,993.59
2022-12-11T01:23:01.276Z,993.56
2022-12-11T01:24:04.511Z,993.65
2022-12-11T01:25:07.425Z,993.6
2022-12-11T01:26:10.215Z,993.63
2022-12-11T01:27:12.898Z,993.64
2022-12-11T01:28:15.576Z,993.63
2022-12-11T01:29:18.217Z,993.68
2022-12-11T01:30:20.835Z,993.63
2022-12-11T01:31:23.468Z,993.67
2022-12-11T01:32:26.142Z,993.69
2022-12-11T01:33:28.785Z,993.77
2022-12-11T01:34:31.489Z,993.8
2022-12-11T01:35:34.110Z,993.71
2022-12-11T01:36:36.748Z,993.78
2022-12-11T01:37:39.379Z,993.8
2022-12-11T01:38:42.047Z,993.8
2022-12-11T01:39:44.696Z,993.84
2022-12-11T01:40:47.419Z,993.84
2022-12-11T01:41:50.142Z,993.85
2022-12-11T01:42:52.772Z,993.84
2022-12-11T01:43:55.436Z,993.82
2022-12-11T01:44:58.061Z,993.78
2022-12-11T01:46:01.000Z,993.8
2022-12-11T01:47:03.652Z,993.78
2022-12-11T01:48:06.324Z,993.81
2022-12-11T01:49:08.952Z,993.8
2022-12-11T01:50:11.600Z,993.82
2022-12-11T01:51:14.251Z,993.83
2022-12-11T01:52:16.882Z,993.81
2022-12-11T01:53:19.528Z,993.81
2022-12-11T01:54:22.186Z,993.82
2022-12-11T01:55:24.834Z,993.82
2022-12-11T01:56:27.690Z,993.8
2022-12-11T01:57:30.333Z,993.73
2022-12-11T01:58:33.064Z,993.8
2022-12-11T01:59:35.748Z,993.82
2022-12-11T02:00:38.368Z,993.83
2022-12-11T02:01:41.415Z,993.87
2022-12-11T02:02:44.466Z,993.84
2022-12-11T02:03:47.073Z,993.81
2022-12-11T02:04:49.774Z,993.87
2022-12-11T02:05:52.443Z,993.94
2022-12-11T02:06:55.097Z,993.99
2022-12-11T02:07:58.041Z,994.03
2022-12-11T02:09:00.709Z,994.02
2022-12-11T02:10:03.447Z,994.06
2022-12-11T02:11:06.101Z,994.07
2022-12-11T02:12:08.989Z,994.15
2022-12-11T02:13:16.602Z,994.17
2022-12-11T02:14:18.924Z,994.11
2022-12-11T02:15:21.545Z,994.15
2022-12-11T02:16:24.394Z,994.17
2022-12-11T02:17:27.076Z,994.17
2022-12-11T02:18:29.734Z,994.2
2022-12-11T02:19:32.379Z,994.23
2022-12-11T02:20:34.964Z,994.17
2022-12-11T02:21:37.585Z,994.12
2022-12-11T02:22:40.242Z,994.11
2022-12-11T02:23:42.890Z,994.17
2022-12-11T02:24:45.554Z,994.1
2022-12-11T02:25:48.242Z,994.13
2022-12-11T02:26:50.833Z,994.09
2022-12-11T02:27:53.484Z,994.1
2022-12-11T02:28:56.762Z,994.04
2022-12-11T02:29:59.417Z,994.07
2022-12-11T02:31:02.365Z,994.12
2022-12-11T02:32:05.038Z,994.1
2022-12-11T02:33:07.664Z,994.11
2022-12-11T02:34:10.294Z,994.12
2022-12-11T02:35:14.086Z,994.14
2022-12-11T02:36:16.667Z,994.13
2022-12-11T02:37:19.310Z,994.13
2022-12-11T02:38:21.944Z,994.11
2022-12-11T02:39:24.573Z,994.11
2022-12-11T02:40:27.260Z,994.14
2022-12-11T02:41:29.909Z,994.15
2022-12-11T02:42:32.524Z,994.09
2022-12-11T02:43:35.152Z,994.14
2022-12-11T02:44:37.781Z,994.19
2022-12-11T02:45:40.680Z,994.12
2022-12-11T02:46:43.412Z,994.16
2022-12-11T02:47:46.031Z,994.14
2022-12-11T02:48:48.707Z,994.09
2022-12-11T02:49:51.361Z,994.13
2022-12-11T02:50:53.948Z,994.09
2022-12-11T02:51:56.637Z,994.12
2022-12-11T02:52:59.250Z,994.11
2022-12-11T02:54:01.887Z,994.2
2022-12-11T02:55:04.520Z,994.11
2022-12-11T02:56:07.188Z,994.12
2022-12-11T02:57:09.900Z,994.14
2022-12-11T02:58:13.153Z,994.1
2022-12-11T02:59:15.734Z,994.13
2022-12-11T03:00:18.402Z,994.14
2022-12-11T03:01:21.285Z,994.11
2022-12-11T03:02:24.126Z,994.09
2022-12-11T03:03:26.794Z,994.05
2022-12-11T03:04:29.428Z,994.07
2022-12-11T03:05:32.068Z,994.11
2022-12-11T03:06:34.722Z,994.05
2022-12-11T03:07:37.392Z,994.07
2022-12-11T03:08:40.025Z,994.06
2022-12-11T03:09:42.685Z,994.07
2022-12-11T03:10:45.351Z,994
2022-12-11T03:11:48.025Z,994.1
2022-12-11T03:12:54.356Z,994.01
2022-12-11T03:13:56.713Z,994.03
2022-12-11T03:14:59.317Z,994.03
2022-12-11T03:16:02.199Z,994
2022-12-11T03:17:05.008Z,994.01
2022-12-11T03:18:07.641Z,994.05
2022-12-11T03:19:10.308Z,994.03
2022-12-11T03:20:12.926Z,994.07
2022-12-11T03:21:15.597Z,994.09
2022-12-11T03:22:18.235Z,994.17
2022-12-11T03:23:20.866Z,994.16
2022-12-11T03:24:23.470Z,994.12
2022-12-11T03:25:26.130Z,994.14
2022-12-11T03:26:28.794Z,994.11
2022-12-11T03:27:31.485Z,994.13
2022-12-11T03:28:34.149Z,994.18
2022-12-11T03:29:36.815Z,994.1
2022-12-11T03:30:39.607Z,994.14
2022-12-11T03:31:42.332Z,994.12
2022-12-11T03:32:45.031Z,994.16
2022-12-11T03:33:47.678Z,994.15
2022-12-11T03:34:58.683Z,994.16
2022-12-11T03:36:00.932Z,994.16
2022-12-11T03:37:03.512Z,994.14
2022-12-11T03:38:06.140Z,994.12
2022-12-11T03:39:08.829Z,994.11
2022-12-11T03:40:11.495Z,994.06
2022-12-11T03:41:14.139Z,994.14
2022-12-11T03:42:16.756Z,994.07
2022-12-11T03:43:19.437Z,994.03
2022-12-11T03:44:22.166Z,994.06
2022-12-11T03:45:24.811Z,994.07
2022-12-11T03:46:27.675Z,994.08
2022-12-11T03:47:30.365Z,994.12
2022-12-11T03:48:33.014Z,994.08
2022-12-11T03:49:35.650Z,994.11
2022-12-11T03:50:38.289Z,994.07
2022-12-11T03:51:40.945Z,994.04
2022-12-11T03:52:46.608Z,993.99
2022-12-11T03:53:48.998Z,994
2022-12-11T03:54:51.648Z,993.97
2022-12-11T03:55:54.307Z,994.02
2022-12-11T03:56:56.998Z,994.05
2022-12-11T03:57:59.605Z,994
2022-12-11T03:59:02.253Z,993.98
2022-12-11T04:00:04.875Z,993.97
2022-12-11T04:01:07.529Z,993.93
2022-12-11T04:02:10.355Z,993.94
2022-12-11T04:03:15.199Z,993.93
2022-12-11T04:04:17.974Z,993.89
2022-12-11T04:05:20.592Z,993.9
2022-12-11T04:06:23.254Z,993.95
2022-12-11T04:07:25.881Z,993.95
2022-12-11T04:08:28.760Z,993.96
2022-12-11T04:09:31.428Z,993.9
2022-12-11T04:10:34.088Z,993.91
2022-12-11T04:11:36.727Z,993.96
2022-12-11T04:12:39.379Z,993.94
2022-12-11T04:13:41.985Z,993.95
2022-12-11T04:14:44.636Z,993.99
2022-12-11T04:15:47.476Z,993.95
2022-12-11T04:16:50.148Z,993.97
2022-12-11T04:17:52.774Z,993.96
2022-12-11T04:18:55.453Z,993.98
2022-12-11T04:19:58.115Z,993.97
2022-12-11T04:21:00.761Z,993.95
2022-12-11T04:22:03.403Z,993.94
2022-12-11T04:23:06.059Z,993.95
2022-12-11T04:24:08.699Z,994.01
2022-12-11T04:25:12.774Z,993.97
2022-12-11T04:26:15.503Z,993.95
2022-12-11T04:27:18.084Z,993.95
2022-12-11T04:28:20.771Z,993.92
2022-12-11T04:29:23.426Z,993.97
2022-12-11T04:30:34.747Z,993.93
2022-12-11T04:31:36.982Z,993.91
2022-12-11T04:32:39.577Z,993.92
2022-12-11T04:33:42.215Z,993.89
2022-12-11T04:34:44.926Z,993.95
2022-12-11T04:35:47.565Z,993.92
2022-12-11T04:36:50.216Z,993.93
2022-12-11T04:37:53.505Z,993.98
2022-12-11T04:38:56.113Z,993.98
2022-12-11T04:39:58.728Z,993.94
2022-12-11T04:41:01.372Z,993.94
2022-12-11T04:42:04.269Z,993.91
2022-12-11T04:43:06.895Z,993.9
2022-12-11T04:44:09.566Z,993.93
2022-12-11T04:45:13.502Z,993.95
2022-12-11T04:46:16.321Z,993.93
2022-12-11T04:47:19.277Z,993.99
2022-12-11T04:48:21.907Z,993.93
2022-12-11T04:49:24.550Z,993.97
2022-12-11T04:50:27.191Z,993.97
2022-12-11T04:51:29.868Z,993.95
2022-12-11T04:52:32.521Z,993.91
2022-12-11T04:53:35.144Z,993.87
2022-12-11T04:54:38.380Z,993.87
2022-12-11T04:55:40.971Z,993.86
2022-12-11T04:56:43.585Z,993.84
2022-12-11T04:57:46.276Z,993.81
2022-12-11T04:58:48.936Z,993.8
2022-12-11T04:59:51.622Z,993.79
2022-12-11T05:00:54.263Z,993.8
2022-12-11T05:01:57.133Z,993.79
2022-12-11T05:03:00.159Z,993.8
2022-12-11T05:04:02.795Z,993.79
2022-12-11T05:05:05.447Z,993.78
2022-12-11T05:06:08.072Z,993.77
2022-12-11T05:07:10.738Z,993.75
2022-12-11T05:08:13.823Z,993.69
2022-12-11T05:09:17.078Z,993.71
2022-12-11T05:10:19.702Z,993.7
2022-12-11T05:11:22.431Z,993.65
2022-12-11T05:12:25.000Z,993.64
2022-12-11T05:13:27.712Z,993.65
2022-12-11T05:14:30.360Z,993.59
2022-12-11T05:15:33.027Z,993.59
2022-12-11T05:16:35.650Z,993.58
2022-12-11T05:17:38.901Z,993.55
2022-12-11T05:18:41.543Z,993.54
2022-12-11T05:19:44.205Z,993.46
2022-12-11T05:20:46.841Z,993.48
2022-12-11T05:21:49.481Z,993.46
2022-12-11T05:22:52.146Z,993.44
2022-12-11T05:23:54.795Z,993.41
2022-12-11T05:24:57.462Z,993.39
2022-12-11T05:26:00.110Z,993.42
2022-12-11T05:27:02.724Z,993.4
2022-12-11T05:28:05.364Z,993.47
2022-12-11T05:29:08.002Z,993.4
2022-12-11T05:30:10.656Z,993.44
2022-12-11T05:31:13.568Z,993.4
2022-12-11T05:32:16.185Z,993.39
2022-12-11T05:33:18.859Z,993.4
2022-12-11T05:34:21.557Z,993.37
2022-12-11T05:35:24.169Z,993.38
2022-12-11T05:36:26.822Z,993.38
2022-12-11T05:37:29.445Z,993.34
2022-12-11T05:38:32.074Z,993.33
2022-12-11T05:39:34.703Z,993.32
2022-12-11T05:40:37.319Z,993.28
2022-12-11T05:41:39.963Z,993.27
2022-12-11T05:42:42.634Z,993.23
2022-12-11T05:43:45.263Z,993.21
2022-12-11T05:44:47.901Z,993.28
2022-12-11T05:45:50.528Z,993.24
2022-12-11T05:46:53.406Z,993.19
2022-12-11T05:47:56.046Z,993.19
2022-12-11T05:48:58.688Z,993.13
2022-12-11T05:50:01.399Z,993.09
2022-12-11T05:51:04.060Z,993.13
2022-12-11T05:52:06.736Z,993.08
2022-12-11T05:53:09.456Z,993.16
2022-12-11T05:54:12.106Z,993.14
2022-12-11T05:55:14.756Z,993.06
2022-12-11T05:56:17.379Z,993.14
2022-12-11T05:57:20.231Z,993.13
2022-12-11T05:58:22.838Z,993.07
2022-12-11T05:59:25.503Z,993.15
2022-12-11T06:00:36.557Z,993.17
2022-12-11T06:01:38.901Z,993.18
2022-12-11T06:02:42.129Z,993.16
2022-12-11T06:03:44.814Z,993.1
2022-12-11T06:04:47.476Z,993.11
2022-12-11T06:05:50.183Z,993.06
2022-12-11T06:06:52.780Z,993.05
2022-12-11T06:07:55.593Z,993.07
2022-12-11T06:08:58.208Z,993.04
2022-12-11T06:10:00.872Z,993.08
2022-12-11T06:11:03.491Z,993.06
2022-12-11T06:12:06.166Z,993.11
2022-12-11T06:13:08.809Z,993.16
2022-12-11T06:14:11.469Z,993.09
2022-12-11T06:15:14.093Z,993.15
2022-12-11T06:16:16.904Z,993.16
2022-12-11T06:17:19.576Z,993.14
2022-12-11T06:18:22.203Z,993.14
2022-12-11T06:19:24.852Z,993.16
2022-12-11T06:20:27.507Z,993.18
2022-12-11T06:21:30.247Z,993.12
2022-12-11T06:22:33.121Z,993.16
2022-12-11T06:23:35.778Z,993.18
2022-12-11T06:24:38.441Z,993.22
2022-12-11T06:25:41.095Z,993.24
2022-12-11T06:26:43.770Z,993.14
2022-12-11T06:27:46.448Z,993.17
2022-12-11T06:28:49.140Z,993.15
2022-12-11T06:29:52.076Z,993.14
2022-12-11T06:30:54.675Z,993.15
2022-12-11T06:31:57.585Z,993.17
2022-12-11T06:33:00.256Z,993.17
2022-12-11T06:34:02.912Z,993.12
2022-12-11T06:35:05.578Z,993.2
2022-12-11T06:36:08.370Z,993.14
2022-12-11T06:37:11.090Z,993.12
2022-12-11T06:38:13.721Z,993.14
2022-12-11T06:39:16.425Z,993.11
2022-12-11T06:40:19.115Z,993.17
2022-12-11T06:41:21.774Z,993.14
2022-12-11T06:42:24.411Z,993.12
2022-12-11T06:43:27.055Z,993.12
2022-12-11T06:44:29.734Z,993.11
2022-12-11T06:45:32.662Z,993.13
2022-12-11T06:46:35.946Z,993.09
2022-12-11T06:47:38.516Z,993.13
2022-12-11T06:48:41.115Z,993.13
2022-12-11T06:49:43.730Z,993.14
2022-12-11T06:50:46.400Z,993.19
2022-12-11T06:51:49.114Z,993.14
2022-12-11T06:52:51.766Z,993.14
2022-12-11T06:53:54.426Z,993.12
2022-12-11T06:54:57.083Z,993.18
2022-12-11T06:55:59.748Z,993.16
2022-12-11T06:57:02.430Z,993.14
2022-12-11T06:58:05.134Z,993.22
2022-12-11T06:59:08.071Z,993.24
2022-12-11T07:00:10.687Z,993.24
2022-12-11T07:01:13.527Z,993.23
2022-12-11T07:02:16.411Z,993.23
2022-12-11T07:03:19.057Z,993.26
2022-12-11T07:04:21.680Z,993.25
2022-12-11T07:05:24.340Z,993.23
2022-12-11T07:06:27.008Z,993.23
2022-12-11T07:07:29.847Z,993.28
2022-12-11T07:08:32.513Z,993.25
2022-12-11T07:09:35.187Z,993.25
2022-12-11T07:10:37.797Z,993.22
2022-12-11T07:11:40.502Z,993.3
2022-12-11T07:12:43.134Z,993.28
2022-12-11T07:13:45.781Z,993.26
2022-12-11T07:14:48.431Z,993.26
2022-12-11T07:15:51.100Z,993.25
2022-12-11T07:16:53.908Z,993.24
2022-12-11T07:17:56.567Z,993.19
2022-12-11T07:18:59.162Z,993.19
2022-12-11T07:20:01.767Z,993.24
2022-12-11T07:21:04.367Z,993.24
2022-12-11T07:22:06.970Z,993.27
2022-12-11T07:23:09.661Z,993.27
2022-12-11T07:24:12.349Z,993.27
2022-12-11T07:25:15.025Z,993.24
2022-12-11T07:26:17.677Z,993.36
2022-12-11T07:27:20.304Z,993.32
2022-12-11T07:28:22.969Z,993.36
2022-12-11T07:29:25.598Z,993.36
2022-12-11T07:30:28.445Z,993.41
2022-12-11T07:31:31.375Z,993.37
2022-12-11T07:32:34.214Z,993.38
2022-12-11T07:33:36.889Z,993.44
2022-12-11T07:34:39.538Z,993.4
2022-12-11T07:35:42.497Z,993.39
2022-12-11T07:36:45.142Z,993.39
2022-12-11T07:37:47.766Z,993.43
2022-12-11T07:38:50.395Z,993.5
2022-12-11T07:39:53.073Z,993.54
2022-12-11T07:40:55.714Z,993.51
2022-12-11T07:41:58.505Z,993.5
2022-12-11T07:43:01.193Z,993.53
2022-12-11T07:44:03.855Z,993.53
2022-12-11T07:45:06.514Z,993.47
2022-12-11T07:46:09.414Z,993.51
2022-12-11T07:47:12.094Z,993.46
2022-12-11T07:48:14.697Z,993.51
2022-12-11T07:49:17.368Z,993.49
2022-12-11T07:50:20.016Z,993.5
2022-12-11T07:51:22.780Z,993.52
2022-12-11T07:52:25.448Z,993.54
2022-12-11T07:53:28.103Z,993.56
2022-12-11T07:54:30.767Z,993.57
2022-12-11T07:55:33.667Z,993.62
2022-12-11T07:56:36.269Z,993.67
2022-12-11T07:57:38.886Z,993.59
2022-12-11T07:58:41.611Z,993.62
2022-12-11T07:59:44.476Z,993.61
2022-12-11T08:00:47.316Z,993.58
2022-12-11T08:01:49.951Z,993.6
2022-12-11T08:02:52.913Z,993.55
2022-12-11T08:03:55.550Z,993.6
2022-12-11T08:04:58.156Z,993.58
2022-12-11T08:06:00.756Z,993.63
2022-12-11T08:07:03.397Z,993.58
2022-12-11T08:08:06.486Z,993.53
2022-12-11T08:09:09.159Z,993.62
2022-12-11T08:10:11.820Z,993.57
2022-12-11T08:11:14.481Z,993.6
2022-12-11T08:12:17.163Z,993.57
2022-12-11T08:13:19.797Z,993.6
2022-12-11T08:14:22.495Z,993.59
2022-12-11T08:15:25.189Z,993.57
2022-12-11T08:16:28.039Z,993.61
2022-12-11T08:17:40.581Z,993.64
2022-12-11T08:18:42.782Z,993.59
2022-12-11T08:19:45.368Z,993.6
2022-12-11T08:20:48.012Z,993.61
2022-12-11T08:21:50.630Z,993.63
2022-12-11T08:22:59.611Z,993.61
2022-12-11T08:24:01.923Z,993.67
2022-12-11T08:25:04.573Z,993.63
2022-12-11T08:26:07.227Z,993.67
2022-12-11T08:27:09.941Z,993.65
2022-12-11T08:28:12.546Z,993.65
2022-12-11T08:29:15.181Z,993.63
2022-12-11T08:30:17.816Z,993.57
2022-12-11T08:31:20.745Z,993.56
2022-12-11T08:32:23.372Z,993.62
2022-12-11T08:33:25.997Z,993.6
2022-12-11T08:34:28.683Z,993.54
2022-12-11T08:35:39.213Z,993.56
2022-12-11T08:36:41.628Z,993.61
2022-12-11T08:37:44.221Z,993.62
2022-12-11T08:38:46.882Z,993.57
2022-12-11T08:39:50.090Z,993.56
2022-12-11T08:40:52.707Z,993.61
2022-12-11T08:41:55.368Z,993.57
2022-12-11T08:42:58.060Z,993.57
2022-12-11T08:44:00.749Z,993.53
2022-12-11T08:45:03.346Z,993.62
2022-12-11T08:46:06.273Z,993.55
2022-12-11T08:47:08.957Z,993.55
2022-12-11T08:48:11.555Z,993.54
2022-12-11T08:49:14.236Z,993.54
2022-12-11T08:50:16.908Z,993.54
2022-12-11T08:51:19.555Z,993.47
2022-12-11T08:52:22.170Z,993.46
2022-12-11T08:53:24.805Z,993.49
2022-12-11T08:54:27.530Z,993.51
2022-12-11T08:55:30.193Z,993.49
2022-12-11T08:56:34.279Z,993.51
2022-12-11T08:57:36.850Z,993.5
2022-12-11T08:58:39.523Z,993.52
2022-12-11T08:59:42.163Z,993.49
2022-12-11T09:00:44.796Z,993.47
2022-12-11T09:01:47.728Z,993.51
2022-12-11T09:02:50.674Z,993.47
2022-12-11T09:03:53.373Z,993.45
2022-12-11T09:04:56.046Z,993.48
2022-12-11T09:05:58.685Z,993.49
2022-12-11T09:07:01.335Z,993.45
2022-12-11T09:08:04.278Z,993.47
2022-12-11T09:09:06.945Z,993.39
2022-12-11T09:10:09.596Z,993.43
2022-12-11T09:11:12.243Z,993.4
2022-12-11T09:12:14.844Z,993.4
2022-12-11T09:13:17.540Z,993.42
2022-12-11T09:14:20.196Z,993.36
2022-12-11T09:15:22.826Z,993.36
2022-12-11T09:16:25.458Z,993.39
2022-12-11T09:17:28.106Z,993.36
2022-12-11T09:18:30.785Z,993.36
2022-12-11T09:19:33.455Z,993.37
2022-12-11T09:20:36.113Z,993.35
2022-12-11T09:21:38.741Z,993.37
2022-12-11T09:22:41.357Z,993.38
2022-12-11T09:23:44.171Z,993.32
2022-12-11T09:24:46.812Z,993.37
2022-12-11T09:25:49.473Z,993.38
2022-12-11T09:26:52.188Z,993.35
2022-12-11T09:27:54.823Z,993.33
2022-12-11T09:28:57.469Z,993.29
2022-12-11T09:30:00.173Z,993.25
2022-12-11T09:31:02.966Z,993.23
2022-12-11T09:32:05.677Z,993.3
2022-12-11T09:33:08.348Z,993.23
2022-12-11T09:34:11.051Z,993.29
2022-12-11T09:35:14.190Z,993.24
2022-12-11T09:36:21.335Z,993.29
2022-12-11T09:37:23.661Z,993.27
2022-12-11T09:38:26.329Z,993.25
2022-12-11T09:39:28.994Z,993.27
2022-12-11T09:40:31.658Z,993.25
2022-12-11T09:41:34.281Z,993.25
2022-12-11T09:42:36.939Z,993.23
2022-12-11T09:43:53.189Z,993.23
2022-12-11T09:44:55.850Z,993.24
2022-12-11T09:45:59.019Z,993.2
2022-12-11T09:47:01.671Z,993.22
2022-12-11T09:48:04.338Z,993.21
2022-12-11T09:49:07.007Z,993.24
2022-12-11T09:50:09.955Z,993.19
2022-12-11T09:51:12.596Z,993.2
2022-12-11T09:52:15.267Z,993.25
2022-12-11T09:53:17.897Z,993.18
2022-12-11T09:54:20.535Z,993.14
2022-12-11T09:55:23.191Z,993.17
2022-12-11T09:56:35.860Z,993.1
2022-12-11T09:57:38.120Z,993.12
2022-12-11T09:58:40.782Z,993.07
2022-12-11T09:59:44.034Z,993.07
2022-12-11T10:00:46.676Z,993.08
2022-12-11T10:01:49.560Z,993.04
2022-12-11T10:02:52.413Z,992.99
2022-12-11T10:03:55.169Z,993
2022-12-11T10:04:57.836Z,993.04
2022-12-11T10:06:05.516Z,992.95
2022-12-11T10:07:07.833Z,992.95
2022-12-11T10:08:10.756Z,992.97
2022-12-11T10:09:13.386Z,992.94
2022-12-11T10:10:16.032Z,992.88
2022-12-11T10:11:18.693Z,992.89
2022-12-11T10:12:21.338Z,992.9
2022-12-11T10:13:24.058Z,992.86
2022-12-11T10:14:26.874Z,992.82
2022-12-11T10:15:30.036Z,992.8
2022-12-11T10:16:32.680Z,992.75
2022-12-11T10:17:35.350Z,992.77
2022-12-11T10:18:38.223Z,992.7
2022-12-11T10:19:40.853Z,992.7
2022-12-11T10:20:43.501Z,992.73
2022-12-11T10:21:46.145Z,992.74
2022-12-11T10:22:48.820Z,992.66
2022-12-11T10:23:51.488Z,992.63
2022-12-11T10:25:11.767Z,992.65
2022-12-11T10:26:15.970Z,992.62
2022-12-11T10:27:18.545Z,992.62
2022-12-11T10:28:21.170Z,992.58
2022-12-11T10:29:23.765Z,992.59
2022-12-11T10:30:34.868Z,992.58
2022-12-11T10:31:37.448Z,992.62
2022-12-11T10:32:40.073Z,992.61
2022-12-11T10:33:42.781Z,992.54
2022-12-11T10:34:45.394Z,992.62
2022-12-11T10:35:48.036Z,992.53
2022-12-11T10:36:50.684Z,992.53
2022-12-11T10:37:53.321Z,992.48
2022-12-11T10:38:55.953Z,992.53
2022-12-11T10:39:58.606Z,992.45
2022-12-11T10:41:01.235Z,992.41
2022-12-11T10:42:03.934Z,992.4
2022-12-11T10:43:06.514Z,992.37
2022-12-11T10:44:09.152Z,992.4
2022-12-11T10:45:12.803Z,992.37
2022-12-11T10:46:15.613Z,992.41
2022-12-11T10:47:18.307Z,992.39
2022-12-11T10:48:20.998Z,992.37
2022-12-11T10:49:23.638Z,992.34
2022-12-11T10:50:26.356Z,992.33
2022-12-11T10:51:29.051Z,992.36
2022-12-11T10:52:31.855Z,992.35
2022-12-11T10:53:34.511Z,992.33
2022-12-11T10:54:37.192Z,992.32
2022-12-11T10:55:39.817Z,992.36
2022-12-11T10:56:42.485Z,992.37
2022-12-11T10:57:45.131Z,992.37
2022-12-11T10:58:47.754Z,992.34
2022-12-11T10:59:50.421Z,992.32
2022-12-11T11:00:53.305Z,992.35
2022-12-11T11:01:56.139Z,992.34
2022-12-11T11:02:59.159Z,992.34
2022-12-11T11:04:01.890Z,992.33
2022-12-11T11:05:04.587Z,992.34
2022-12-11T11:06:07.265Z,992.37
2022-12-11T11:07:09.923Z,992.3
2022-12-11T11:08:12.825Z,992.35
2022-12-11T11:09:15.522Z,992.32
2022-12-11T11:10:18.207Z,992.33
2022-12-11T11:11:20.810Z,992.35
2022-12-11T11:12:23.457Z,992.3
2022-12-11T11:13:26.100Z,992.25
2022-12-11T11:14:28.706Z,992.34
2022-12-11T11:15:31.384Z,992.36
2022-12-11T11:16:33.986Z,992.32
2022-12-11T11:17:55.317Z,992.31
2022-12-11T11:18:57.653Z,992.36
2022-12-11T11:20:00.281Z,992.29
2022-12-11T11:21:02.975Z,992.34
2022-12-11T11:22:05.597Z,992.34
2022-12-11T11:23:08.260Z,992.32
2022-12-11T11:24:10.924Z,992.35
2022-12-11T11:25:14.320Z,992.39
2022-12-11T11:26:16.905Z,992.32
2022-12-11T11:27:19.563Z,992.3
2022-12-11T11:28:22.209Z,992.31
2022-12-11T11:29:24.882Z,992.31
2022-12-11T11:30:27.603Z,992.31
2022-12-11T11:31:30.794Z,992.24
2022-12-11T11:32:33.389Z,992.28
2022-12-11T11:33:35.999Z,992.22
2022-12-11T11:34:38.680Z,992.27
2022-12-11T11:35:46.163Z,992.21
2022-12-11T11:36:48.474Z,992.2
2022-12-11T11:37:51.302Z,992.19
2022-12-11T11:38:53.964Z,992.19
2022-12-11T11:39:56.634Z,992.18
2022-12-11T11:41:15.201Z,992.2
2022-12-11T11:42:17.489Z,992.11
2022-12-11T11:43:19.981Z,992.15
2022-12-11T11:44:22.581Z,992.21
2022-12-11T11:45:25.221Z,992.15
2022-12-11T11:46:28.105Z,992.16
2022-12-11T11:47:31.044Z,992.13
2022-12-11T11:48:33.617Z,992.14
2022-12-11T11:49:36.262Z,992.08
2022-12-11T11:50:38.904Z,992.08
2022-12-11T11:51:41.548Z,992.06
2022-12-11T11:52:44.192Z,992.03
2022-12-11T11:53:47.107Z,991.99
2022-12-11T11:54:49.740Z,991.95
2022-12-11T11:55:52.903Z,991.98
2022-12-11T11:56:55.534Z,991.96
2022-12-11T11:57:58.149Z,992.01
2022-12-11T11:59:00.848Z,991.97
2022-12-11T12:00:03.739Z,991.89
2022-12-11T12:01:06.407Z,991.92
2022-12-11T12:02:09.001Z,991.95
2022-12-11T12:03:15.106Z,991.94
2022-12-11T12:04:17.525Z,991.92
2022-12-11T12:05:20.144Z,991.88
2022-12-11T12:06:22.814Z,991.9
2022-12-11T12:07:25.482Z,991.92
2022-12-11T12:08:28.436Z,991.92
2022-12-11T12:09:31.230Z,991.89
2022-12-11T12:10:35.416Z,991.91
2022-12-11T12:11:38.029Z,991.82
2022-12-11T12:12:40.672Z,991.87
2022-12-11T12:13:50.840Z,991.87
2022-12-11T12:14:53.350Z,991.85
2022-12-11T12:15:56.117Z,991.88
2022-12-11T12:16:59.119Z,991.78
2022-12-11T12:18:02.017Z,991.81
2022-12-11T12:19:04.658Z,991.84
2022-12-11T12:20:08.115Z,991.81
2022-12-11T12:21:10.773Z,991.77
2022-12-11T12:22:18.911Z,991.8
2022-12-11T12:23:21.179Z,991.84
2022-12-11T12:24:23.858Z,991.82
2022-12-11T12:25:26.479Z,991.81
2022-12-11T12:26:29.159Z,991.8
2022-12-11T12:27:54.011Z,991.79
2022-12-11T12:28:53.647Z,991.79
2022-12-11T12:30:01.792Z,991.77
2022-12-11T12:31:04.355Z,991.81
2022-12-11T12:32:06.968Z,991.8
2022-12-11T12:33:09.574Z,991.72
2022-12-11T12:34:12.231Z,991.78
2022-12-11T12:35:14.892Z,991.78
2022-12-11T12:36:17.532Z,991.76
2022-12-11T12:37:24.689Z,991.78
2022-12-11T12:38:27.010Z,991.79
2022-12-11T12:39:29.829Z,991.84
2022-12-11T12:40:32.482Z,991.8
2022-12-11T12:41:35.176Z,991.8
2022-12-11T12:42:43.401Z,991.8
2022-12-11T12:43:45.802Z,991.78
2022-12-11T12:47:54.092Z,991.77
2022-12-11T12:48:55.799Z,991.76
2022-12-11T12:49:58.292Z,991.73
2022-12-11T12:51:00.865Z,991.72
2022-12-11T12:52:03.485Z,991.71
2022-12-11T12:53:11.902Z,991.7
2022-12-11T12:54:13.835Z,991.75
2022-12-11T12:55:17.494Z,991.74
2022-12-11T12:56:20.060Z,991.79
2022-12-11T12:57:22.739Z,991.76
2022-12-11T12:58:25.388Z,991.76
2022-12-11T12:59:28.064Z,991.78
2022-12-11T13:00:30.692Z,991.78
2022-12-11T13:01:33.577Z,991.75
2022-12-11T13:02:36.380Z,991.76
2022-12-11T13:03:39.063Z,991.78
2022-12-11T13:04:56.792Z,991.76
2022-12-11T13:05:58.999Z,991.8
2022-12-11T13:07:01.616Z,991.76
2022-12-11T13:08:04.495Z,991.79
2022-12-11T13:09:07.189Z,991.79
2022-12-11T13:10:10.265Z,991.75
2022-12-11T13:11:12.865Z,991.76
2022-12-11T13:12:15.502Z,991.76